Terminal Aerodrome Forecast
Issued by NWS Springfield, MO

Home | Current Version | Previous Version | Text Only | Print | Product List | Glossary On
Versions: 1 2 3 4 5 6 7 8 9 10 11 12 13 14 15 16 17 18 19 20 21 22
000
FTUS43 KSGF 150300 AAA
TAFSGF
TAF AMD
KSGF 150341Z 1504/1524 15020G30KT P6SM -SHRA SCT060 BKN100
      WS020/18045KT
      TEMPO 1504/1506 3SM -SHRA BR
     FM150900 15018G26KT 5SM -RADZ BR OVC007
     FM151200 18016KT P6SM -DZ OVC015
     FM151600 21018G25KT P6SM SCT025 BKN100
     FM152000 24018G25KT P6SM BKN100=

USA.gov is the U.S. government's official web portal to all federal, state and local government web resources and services.